sensor_id;sensor_type;location;lat;lon;timestamp;P1;durP1;ratioP1;P2;durP2;ratioP2
74707;SDS011;63360;50.104;8.074;2022-12-18T00:02:09;21.20;;;7.97;;
74707;SDS011;63360;50.104;8.074;2022-12-18T00:04:36;20.98;;;7.93;;
74707;SDS011;63360;50.104;8.074;2022-12-18T00:07:02;21.30;;;7.33;;
74707;SDS011;63360;50.104;8.074;2022-12-18T00:09:29;21.85;;;8.02;;
74707;SDS011;63360;50.104;8.074;2022-12-18T00:12:05;22.85;;;7.97;;
74707;SDS011;63360;50.104;8.074;2022-12-18T00:14:40;18.95;;;7.53;;
74707;SDS011;63360;50.104;8.074;2022-12-18T00:17:07;21.13;;;8.40;;
74707;SDS011;63360;50.104;8.074;2022-12-18T00:19:34;21.23;;;7.77;;
74707;SDS011;63360;50.104;8.074;2022-12-18T00:22:00;25.73;;;7.85;;
74707;SDS011;63360;50.104;8.074;2022-12-18T00:24:27;21.73;;;7.65;;
74707;SDS011;63360;50.104;8.074;2022-12-18T00:26:53;27.05;;;7.60;;
74707;SDS011;63360;50.104;8.074;2022-12-18T00:29:19;21.20;;;7.60;;
74707;SDS011;63360;50.104;8.074;2022-12-18T00:31:46;22.37;;;8.13;;
74707;SDS011;63360;50.104;8.074;2022-12-18T00:34:12;19.70;;;7.75;;
74707;SDS011;63360;50.104;8.074;2022-12-18T00:36:39;20.85;;;7.40;;
74707;SDS011;63360;50.104;8.074;2022-12-18T00:39:06;22.95;;;7.20;;
74707;SDS011;63360;50.104;8.074;2022-12-18T00:41:32;22.05;;;6.80;;
74707;SDS011;63360;50.104;8.074;2022-12-18T00:44:17;21.07;;;7.57;;
74707;SDS011;63360;50.104;8.074;2022-12-18T00:46:44;19.17;;;8.23;;
74707;SDS011;63360;50.104;8.074;2022-12-18T00:49:11;24.80;;;8.57;;
74707;SDS011;63360;50.104;8.074;2022-12-18T00:51:38;21.17;;;7.18;;
74707;SDS011;63360;50.104;8.074;2022-12-18T00:54:05;22.30;;;7.82;;
74707;SDS011;63360;50.104;8.074;2022-12-18T00:56:31;20.00;;;7.13;;
74707;SDS011;63360;50.104;8.074;2022-12-18T00:58:57;21.25;;;8.02;;
74707;SDS011;63360;50.104;8.074;2022-12-18T01:01:24;20.98;;;8.30;;
74707;SDS011;63360;50.104;8.074;2022-12-18T01:03:50;23.23;;;8.13;;
74707;SDS011;63360;50.104;8.074;2022-12-18T01:06:17;26.02;;;8.90;;
74707;SDS011;63360;50.104;8.074;2022-12-18T01:08:43;24.10;;;8.93;;
74707;SDS011;63360;50.104;8.074;2022-12-18T01:11:11;27.02;;;9.27;;
74707;SDS011;63360;50.104;8.074;2022-12-18T01:13:42;27.60;;;9.45;;
74707;SDS011;63360;50.104;8.074;2022-12-18T01:16:11;29.33;;;9.52;;
74707;SDS011;63360;50.104;8.074;2022-12-18T01:18:38;27.10;;;10.45;;
74707;SDS011;63360;50.104;8.074;2022-12-18T01:21:08;30.73;;;10.70;;
74707;SDS011;63360;50.104;8.074;2022-12-18T01:23:36;34.47;;;10.38;;
74707;SDS011;63360;50.104;8.074;2022-12-18T01:26:05;31.02;;;10.65;;
74707;SDS011;63360;50.104;8.074;2022-12-18T01:28:36;29.08;;;11.07;;
74707;SDS011;63360;50.104;8.074;2022-12-18T01:31:10;28.33;;;10.35;;
74707;SDS011;63360;50.104;8.074;2022-12-18T01:33:37;32.27;;;11.00;;
74707;SDS011;63360;50.104;8.074;2022-12-18T01:36:04;29.98;;;10.82;;
74707;SDS011;63360;50.104;8.074;2022-12-18T01:38:30;28.17;;;10.68;;
74707;SDS011;63360;50.104;8.074;2022-12-18T01:40:57;33.00;;;11.18;;
74707;SDS011;63360;50.104;8.074;2022-12-18T01:43:44;35.75;;;11.60;;
74707;SDS011;63360;50.104;8.074;2022-12-18T01:46:13;28.73;;;9.83;;
74707;SDS011;63360;50.104;8.074;2022-12-18T01:48:40;31.15;;;10.82;;
74707;SDS011;63360;50.104;8.074;2022-12-18T01:51:09;32.50;;;11.48;;
74707;SDS011;63360;50.104;8.074;2022-12-18T01:53:37;34.05;;;11.68;;
74707;SDS011;63360;50.104;8.074;2022-12-18T01:56:06;28.67;;;10.57;;
74707;SDS011;63360;50.104;8.074;2022-12-18T01:58:54;26.77;;;10.33;;
74707;SDS011;63360;50.104;8.074;2022-12-18T02:01:26;30.02;;;10.85;;
74707;SDS011;63360;50.104;8.074;2022-12-18T02:03:53;28.30;;;10.65;;
74707;SDS011;63360;50.104;8.074;2022-12-18T02:06:29;30.70;;;10.93;;
74707;SDS011;63360;50.104;8.074;2022-12-18T02:12:12;27.23;;;10.03;;
74707;SDS011;63360;50.104;8.074;2022-12-18T02:14:59;29.95;;;10.65;;
74707;SDS011;63360;50.104;8.074;2022-12-18T02:17:35;26.45;;;9.77;;
74707;SDS011;63360;50.104;8.074;2022-12-18T02:25:13;29.03;;;9.83;;
74707;SDS011;63360;50.104;8.074;2022-12-18T02:27:53;26.25;;;9.85;;
74707;SDS011;63360;50.104;8.074;2022-12-18T02:30:26;28.00;;;9.95;;
74707;SDS011;63360;50.104;8.074;2022-12-18T02:32:55;30.90;;;9.70;;
74707;SDS011;63360;50.104;8.074;2022-12-18T02:35:24;26.67;;;10.00;;
74707;SDS011;63360;50.104;8.074;2022-12-18T02:37:53;31.80;;;10.33;;
74707;SDS011;63360;50.104;8.074;2022-12-18T02:40:22;27.48;;;9.98;;
74707;SDS011;63360;50.104;8.074;2022-12-18T02:42:50;28.45;;;10.23;;
74707;SDS011;63360;50.104;8.074;2022-12-18T02:45:16;24.95;;;9.85;;
74707;SDS011;63360;50.104;8.074;2022-12-18T02:47:43;30.40;;;10.05;;
74707;SDS011;63360;50.104;8.074;2022-12-18T02:50:19;31.23;;;11.07;;
74707;SDS011;63360;50.104;8.074;2022-12-18T02:52:56;31.55;;;10.65;;
74707;SDS011;63360;50.104;8.074;2022-12-18T03:01:41;32.55;;;10.63;;
74707;SDS011;63360;50.104;8.074;2022-12-18T03:04:30;26.47;;;9.57;;
74707;SDS011;63360;50.104;8.074;2022-12-18T03:07:26;32.45;;;10.60;;
74707;SDS011;63360;50.104;8.074;2022-12-18T03:10:01;34.95;;;10.68;;
74707;SDS011;63360;50.104;8.074;2022-12-18T03:12:32;34.92;;;10.57;;
74707;SDS011;63360;50.104;8.074;2022-12-18T03:15:14;32.42;;;10.80;;
74707;SDS011;63360;50.104;8.074;2022-12-18T03:17:46;30.90;;;10.27;;
74707;SDS011;63360;50.104;8.074;2022-12-18T03:20:19;29.30;;;10.43;;
74707;SDS011;63360;50.104;8.074;2022-12-18T03:22:48;27.40;;;9.52;;
74707;SDS011;63360;50.104;8.074;2022-12-18T03:25:20;30.10;;;10.30;;
74707;SDS011;63360;50.104;8.074;2022-12-18T03:27:49;28.65;;;9.40;;
74707;SDS011;63360;50.104;8.074;2022-12-18T03:30:19;24.83;;;9.60;;
74707;SDS011;63360;50.104;8.074;2022-12-18T03:35:26;32.05;;;9.95;;
74707;SDS011;63360;50.104;8.074;2022-12-18T03:37:56;24.58;;;9.13;;
74707;SDS011;63360;50.104;8.074;2022-12-18T03:40:26;26.55;;;9.35;;
74707;SDS011;63360;50.104;8.074;2022-12-18T03:43:08;27.90;;;9.53;;
74707;SDS011;63360;50.104;8.074;2022-12-18T03:45:41;29.90;;;10.10;;
74707;SDS011;63360;50.104;8.074;2022-12-18T03:48:15;26.35;;;9.85;;
74707;SDS011;63360;50.104;8.074;2022-12-18T03:53:43;27.63;;;9.90;;
74707;SDS011;63360;50.104;8.074;2022-12-18T03:56:17;26.87;;;9.37;;
74707;SDS011;63360;50.104;8.074;2022-12-18T03:58:46;30.40;;;10.32;;
74707;SDS011;63360;50.104;8.074;2022-12-18T04:01:16;28.63;;;10.13;;
74707;SDS011;63360;50.104;8.074;2022-12-18T04:03:44;25.67;;;9.35;;
74707;SDS011;63360;50.104;8.074;2022-12-18T04:06:14;29.15;;;9.93;;
74707;SDS011;63360;50.104;8.074;2022-12-18T04:08:42;29.93;;;9.60;;
74707;SDS011;63360;50.104;8.074;2022-12-18T04:11:10;26.73;;;8.80;;
74707;SDS011;63360;50.104;8.074;2022-12-18T04:13:37;27.85;;;9.75;;
74707;SDS011;63360;50.104;8.074;2022-12-18T04:16:05;31.40;;;10.38;;
74707;SDS011;63360;50.104;8.074;2022-12-18T04:18:32;27.48;;;9.68;;
74707;SDS011;63360;50.104;8.074;2022-12-18T04:20:58;26.07;;;9.23;;
74707;SDS011;63360;50.104;8.074;2022-12-18T04:23:25;28.95;;;9.82;;
74707;SDS011;63360;50.104;8.074;2022-12-18T04:25:51;29.38;;;9.90;;
74707;SDS011;63360;50.104;8.074;2022-12-18T04:28:17;27.55;;;9.77;;
74707;SDS011;63360;50.104;8.074;2022-12-18T04:30:44;28.50;;;9.93;;
74707;SDS011;63360;50.104;8.074;2022-12-18T04:33:16;26.90;;;9.10;;
74707;SDS011;63360;50.104;8.074;2022-12-18T04:35:42;32.17;;;10.10;;
74707;SDS011;63360;50.104;8.074;2022-12-18T04:38:09;28.42;;;10.00;;
74707;SDS011;63360;50.104;8.074;2022-12-18T04:40:36;27.70;;;10.00;;
74707;SDS011;63360;50.104;8.074;2022-12-18T04:43:04;28.77;;;9.43;;
74707;SDS011;63360;50.104;8.074;2022-12-18T04:45:31;28.37;;;9.67;;
74707;SDS011;63360;50.104;8.074;2022-12-18T04:47:58;32.63;;;10.93;;
74707;SDS011;63360;50.104;8.074;2022-12-18T04:50:26;26.70;;;9.77;;
74707;SDS011;63360;50.104;8.074;2022-12-18T04:52:53;33.88;;;10.27;;
74707;SDS011;63360;50.104;8.074;2022-12-18T04:55:19;26.45;;;9.82;;
74707;SDS011;63360;50.104;8.074;2022-12-18T04:57:46;32.80;;;10.90;;
74707;SDS011;63360;50.104;8.074;2022-12-18T05:00:13;33.58;;;10.73;;
74707;SDS011;63360;50.104;8.074;2022-12-18T05:02:40;29.30;;;10.55;;
74707;SDS011;63360;50.104;8.074;2022-12-18T05:05:07;27.83;;;10.02;;
74707;SDS011;63360;50.104;8.074;2022-12-18T05:07:34;28.48;;;9.88;;
74707;SDS011;63360;50.104;8.074;2022-12-18T05:10:00;32.17;;;10.00;;
74707;SDS011;63360;50.104;8.074;2022-12-18T05:12:26;28.60;;;10.13;;
74707;SDS011;63360;50.104;8.074;2022-12-18T05:14:53;33.10;;;11.02;;
74707;SDS011;63360;50.104;8.074;2022-12-18T05:17:19;29.90;;;9.85;;
74707;SDS011;63360;50.104;8.074;2022-12-18T05:19:46;29.65;;;9.85;;
74707;SDS011;63360;50.104;8.074;2022-12-18T05:22:12;33.57;;;10.73;;
74707;SDS011;63360;50.104;8.074;2022-12-18T05:24:38;28.33;;;10.05;;
74707;SDS011;63360;50.104;8.074;2022-12-18T05:27:05;29.13;;;10.23;;
74707;SDS011;63360;50.104;8.074;2022-12-18T05:29:31;28.02;;;9.38;;
74707;SDS011;63360;50.104;8.074;2022-12-18T05:31:57;29.88;;;10.38;;
74707;SDS011;63360;50.104;8.074;2022-12-18T05:34:24;27.20;;;9.93;;
74707;SDS011;63360;50.104;8.074;2022-12-18T05:36:50;29.02;;;10.05;;
74707;SDS011;63360;50.104;8.074;2022-12-18T05:39:16;30.33;;;9.80;;
74707;SDS011;63360;50.104;8.074;2022-12-18T05:41:43;29.13;;;9.55;;
74707;SDS011;63360;50.104;8.074;2022-12-18T05:44:09;31.10;;;10.85;;
74707;SDS011;63360;50.104;8.074;2022-12-18T05:46:36;28.63;;;9.13;;
74707;SDS011;63360;50.104;8.074;2022-12-18T05:49:02;27.73;;;9.98;;
74707;SDS011;63360;50.104;8.074;2022-12-18T05:51:28;28.90;;;10.07;;
74707;SDS011;63360;50.104;8.074;2022-12-18T05:53:55;25.20;;;9.50;;
74707;SDS011;63360;50.104;8.074;2022-12-18T05:56:21;26.88;;;9.88;;
74707;SDS011;63360;50.104;8.074;2022-12-18T05:58:52;29.53;;;9.43;;
74707;SDS011;63360;50.104;8.074;2022-12-18T06:01:23;28.45;;;9.88;;
74707;SDS011;63360;50.104;8.074;2022-12-18T06:03:52;26.80;;;9.65;;
74707;SDS011;63360;50.104;8.074;2022-12-18T06:06:20;27.73;;;9.88;;
74707;SDS011;63360;50.104;8.074;2022-12-18T06:08:49;28.42;;;9.98;;
74707;SDS011;63360;50.104;8.074;2022-12-18T06:11:16;31.20;;;10.97;;
74707;SDS011;63360;50.104;8.074;2022-12-18T06:13:45;27.67;;;9.63;;
74707;SDS011;63360;50.104;8.074;2022-12-18T06:16:12;27.60;;;10.75;;
74707;SDS011;63360;50.104;8.074;2022-12-18T06:18:38;28.77;;;10.40;;
74707;SDS011;63360;50.104;8.074;2022-12-18T06:21:05;34.08;;;11.15;;
74707;SDS011;63360;50.104;8.074;2022-12-18T06:23:31;25.27;;;9.30;;
74707;SDS011;63360;50.104;8.074;2022-12-18T06:25:58;27.35;;;10.13;;
74707;SDS011;63360;50.104;8.074;2022-12-18T06:28:24;31.95;;;10.25;;
74707;SDS011;63360;50.104;8.074;2022-12-18T06:30:51;23.30;;;8.77;;
74707;SDS011;63360;50.104;8.074;2022-12-18T06:33:17;28.38;;;9.18;;
74707;SDS011;63360;50.104;8.074;2022-12-18T06:35:44;27.83;;;9.40;;
74707;SDS011;63360;50.104;8.074;2022-12-18T06:38:10;29.52;;;10.10;;
74707;SDS011;63360;50.104;8.074;2022-12-18T06:40:37;29.08;;;9.90;;
74707;SDS011;63360;50.104;8.074;2022-12-18T06:43:05;29.35;;;9.95;;
74707;SDS011;63360;50.104;8.074;2022-12-18T06:45:32;30.65;;;9.88;;
74707;SDS011;63360;50.104;8.074;2022-12-18T06:47:58;27.93;;;9.57;;
74707;SDS011;63360;50.104;8.074;2022-12-18T06:50:25;29.42;;;11.18;;
74707;SDS011;63360;50.104;8.074;2022-12-18T06:52:51;30.08;;;10.25;;
74707;SDS011;63360;50.104;8.074;2022-12-18T06:55:18;29.90;;;10.82;;
74707;SDS011;63360;50.104;8.074;2022-12-18T06:57:44;39.85;;;14.63;;
74707;SDS011;63360;50.104;8.074;2022-12-18T07:00:11;33.87;;;12.30;;
74707;SDS011;63360;50.104;8.074;2022-12-18T07:02:37;29.05;;;10.10;;
74707;SDS011;63360;50.104;8.074;2022-12-18T07:05:04;30.08;;;10.73;;
74707;SDS011;63360;50.104;8.074;2022-12-18T07:07:36;29.25;;;10.10;;
74707;SDS011;63360;50.104;8.074;2022-12-18T07:10:02;28.27;;;10.40;;
74707;SDS011;63360;50.104;8.074;2022-12-18T07:12:29;28.70;;;9.80;;
74707;SDS011;63360;50.104;8.074;2022-12-18T07:14:55;31.45;;;10.13;;
74707;SDS011;63360;50.104;8.074;2022-12-18T07:17:22;25.13;;;9.27;;
74707;SDS011;63360;50.104;8.074;2022-12-18T07:19:48;28.67;;;10.50;;
74707;SDS011;63360;50.104;8.074;2022-12-18T07:22:14;26.85;;;9.10;;
74707;SDS011;63360;50.104;8.074;2022-12-18T07:24:41;28.50;;;9.53;;
74707;SDS011;63360;50.104;8.074;2022-12-18T07:27:07;29.17;;;10.40;;
74707;SDS011;63360;50.104;8.074;2022-12-18T07:29:35;37.42;;;13.32;;
74707;SDS011;63360;50.104;8.074;2022-12-18T07:32:01;30.27;;;11.23;;
74707;SDS011;63360;50.104;8.074;2022-12-18T07:34:28;30.00;;;9.73;;
74707;SDS011;63360;50.104;8.074;2022-12-18T07:36:54;33.33;;;11.20;;
74707;SDS011;63360;50.104;8.074;2022-12-18T07:39:21;32.50;;;11.13;;
74707;SDS011;63360;50.104;8.074;2022-12-18T07:41:47;28.15;;;9.82;;
74707;SDS011;63360;50.104;8.074;2022-12-18T07:44:33;29.25;;;9.82;;
74707;SDS011;63360;50.104;8.074;2022-12-18T07:47:00;33.55;;;11.00;;
74707;SDS011;63360;50.104;8.074;2022-12-18T07:49:27;27.47;;;10.03;;
74707;SDS011;63360;50.104;8.074;2022-12-18T07:51:54;26.58;;;9.15;;
74707;SDS011;63360;50.104;8.074;2022-12-18T07:54:22;24.60;;;9.35;;
74707;SDS011;63360;50.104;8.074;2022-12-18T07:56:49;27.20;;;9.77;;
74707;SDS011;63360;50.104;8.074;2022-12-18T07:59:16;30.77;;;11.65;;
74707;SDS011;63360;50.104;8.074;2022-12-18T08:01:43;28.93;;;9.97;;
74707;SDS011;63360;50.104;8.074;2022-12-18T08:04:12;26.73;;;9.77;;
74707;SDS011;63360;50.104;8.074;2022-12-18T08:06:38;31.90;;;11.50;;
74707;SDS011;63360;50.104;8.074;2022-12-18T08:09:10;30.25;;;11.48;;
74707;SDS011;63360;50.104;8.074;2022-12-18T08:11:36;33.45;;;12.38;;
74707;SDS011;63360;50.104;8.074;2022-12-18T08:14:02;25.70;;;8.07;;
74707;SDS011;63360;50.104;8.074;2022-12-18T08:16:29;26.88;;;9.00;;
74707;SDS011;63360;50.104;8.074;2022-12-18T08:18:56;28.17;;;9.75;;
74707;SDS011;63360;50.104;8.074;2022-12-18T08:21:26;29.60;;;10.57;;
74707;SDS011;63360;50.104;8.074;2022-12-18T08:23:55;39.85;;;15.02;;
74707;SDS011;63360;50.104;8.074;2022-12-18T08:26:23;44.73;;;17.20;;
74707;SDS011;63360;50.104;8.074;2022-12-18T08:28:50;29.85;;;10.63;;
74707;SDS011;63360;50.104;8.074;2022-12-18T08:31:17;56.90;;;21.80;;
74707;SDS011;63360;50.104;8.074;2022-12-18T08:33:48;25.33;;;9.50;;
74707;SDS011;63360;50.104;8.074;2022-12-18T08:36:15;36.90;;;12.07;;
74707;SDS011;63360;50.104;8.074;2022-12-18T08:38:42;32.83;;;10.73;;
74707;SDS011;63360;50.104;8.074;2022-12-18T08:41:10;35.92;;;13.05;;
74707;SDS011;63360;50.104;8.074;2022-12-18T08:43:38;31.65;;;10.15;;
74707;SDS011;63360;50.104;8.074;2022-12-18T08:46:24;38.03;;;14.43;;
74707;SDS011;63360;50.104;8.074;2022-12-18T08:48:52;32.70;;;10.65;;
74707;SDS011;63360;50.104;8.074;2022-12-18T08:51:19;26.87;;;10.50;;
74707;SDS011;63360;50.104;8.074;2022-12-18T08:53:46;28.23;;;10.55;;
74707;SDS011;63360;50.104;8.074;2022-12-18T08:56:13;31.70;;;10.93;;
74707;SDS011;63360;50.104;8.074;2022-12-18T08:58:40;29.92;;;10.45;;
74707;SDS011;63360;50.104;8.074;2022-12-18T09:01:09;32.55;;;11.13;;
74707;SDS011;63360;50.104;8.074;2022-12-18T09:03:37;29.40;;;8.87;;
74707;SDS011;63360;50.104;8.074;2022-12-18T09:06:05;33.38;;;11.68;;
74707;SDS011;63360;50.104;8.074;2022-12-18T09:08:32;31.77;;;12.00;;
74707;SDS011;63360;50.104;8.074;2022-12-18T09:11:03;30.77;;;11.00;;
74707;SDS011;63360;50.104;8.074;2022-12-18T09:13:29;26.73;;;10.02;;
74707;SDS011;63360;50.104;8.074;2022-12-18T09:15:56;26.57;;;9.40;;
74707;SDS011;63360;50.104;8.074;2022-12-18T09:18:23;30.30;;;10.68;;
74707;SDS011;63360;50.104;8.074;2022-12-18T09:20:49;31.45;;;10.70;;
74707;SDS011;63360;50.104;8.074;2022-12-18T09:23:19;27.27;;;9.10;;
74707;SDS011;63360;50.104;8.074;2022-12-18T09:25:46;33.88;;;11.40;;
74707;SDS011;63360;50.104;8.074;2022-12-18T09:28:14;32.27;;;12.10;;
74707;SDS011;63360;50.104;8.074;2022-12-18T09:30:43;32.67;;;10.90;;
74707;SDS011;63360;50.104;8.074;2022-12-18T09:33:12;36.75;;;12.80;;
74707;SDS011;63360;50.104;8.074;2022-12-18T09:35:39;34.50;;;11.82;;
74707;SDS011;63360;50.104;8.074;2022-12-18T09:38:07;29.23;;;10.65;;
74707;SDS011;63360;50.104;8.074;2022-12-18T09:40:49;30.60;;;10.33;;
74707;SDS011;63360;50.104;8.074;2022-12-18T09:43:30;30.83;;;11.13;;
74707;SDS011;63360;50.104;8.074;2022-12-18T09:46:05;28.27;;;9.95;;
74707;SDS011;63360;50.104;8.074;2022-12-18T09:48:41;40.45;;;15.30;;
74707;SDS011;63360;50.104;8.074;2022-12-18T09:51:14;36.33;;;12.70;;
74707;SDS011;63360;50.104;8.074;2022-12-18T09:53:45;36.77;;;12.33;;
74707;SDS011;63360;50.104;8.074;2022-12-18T09:56:21;36.08;;;12.68;;
74707;SDS011;63360;50.104;8.074;2022-12-18T09:58:51;31.23;;;11.30;;
74707;SDS011;63360;50.104;8.074;2022-12-18T10:01:23;62.90;;;24.52;;
74707;SDS011;63360;50.104;8.074;2022-12-18T10:03:50;35.28;;;12.30;;
74707;SDS011;63360;50.104;8.074;2022-12-18T10:06:19;37.80;;;13.70;;
74707;SDS011;63360;50.104;8.074;2022-12-18T10:09:05;36.20;;;14.73;;
74707;SDS011;63360;50.104;8.074;2022-12-18T10:27:57;33.15;;;11.45;;
74707;SDS011;63360;50.104;8.074;2022-12-18T10:30:33;33.95;;;11.65;;
74707;SDS011;63360;50.104;8.074;2022-12-18T10:33:00;34.30;;;12.27;;
74707;SDS011;63360;50.104;8.074;2022-12-18T10:35:27;36.78;;;13.55;;
74707;SDS011;63360;50.104;8.074;2022-12-18T10:38:10;35.38;;;13.18;;
74707;SDS011;63360;50.104;8.074;2022-12-18T10:43:16;35.85;;;12.65;;
74707;SDS011;63360;50.104;8.074;2022-12-18T10:53:51;40.10;;;13.90;;
74707;SDS011;63360;50.104;8.074;2022-12-18T10:56:21;36.40;;;12.68;;
74707;SDS011;63360;50.104;8.074;2022-12-18T10:58:56;35.50;;;12.23;;
74707;SDS011;63360;50.104;8.074;2022-12-18T11:01:24;34.67;;;13.18;;
74707;SDS011;63360;50.104;8.074;2022-12-18T11:06:27;50.80;;;18.92;;
74707;SDS011;63360;50.104;8.074;2022-12-18T11:11:27;33.50;;;12.20;;
74707;SDS011;63360;50.104;8.074;2022-12-18T11:16:36;41.35;;;13.73;;
74707;SDS011;63360;50.104;8.074;2022-12-18T11:24:53;34.63;;;12.47;;
74707;SDS011;63360;50.104;8.074;2022-12-18T11:27:47;41.78;;;14.15;;
74707;SDS011;63360;50.104;8.074;2022-12-18T11:30:23;42.35;;;15.30;;
74707;SDS011;63360;50.104;8.074;2022-12-18T11:32:59;45.55;;;18.00;;
74707;SDS011;63360;50.104;8.074;2022-12-18T11:35:51;45.25;;;15.57;;
74707;SDS011;63360;50.104;8.074;2022-12-18T11:38:26;37.43;;;14.30;;
74707;SDS011;63360;50.104;8.074;2022-12-18T11:40:57;43.70;;;17.27;;
74707;SDS011;63360;50.104;8.074;2022-12-18T11:43:34;41.15;;;13.45;;
74707;SDS011;63360;50.104;8.074;2022-12-18T11:46:09;42.95;;;14.90;;
74707;SDS011;63360;50.104;8.074;2022-12-18T11:48:56;91.93;;;37.63;;
74707;SDS011;63360;50.104;8.074;2022-12-18T11:51:31;70.27;;;25.40;;
74707;SDS011;63360;50.104;8.074;2022-12-18T11:54:09;46.75;;;16.23;;
74707;SDS011;63360;50.104;8.074;2022-12-18T11:59:24;61.03;;;21.98;;
74707;SDS011;63360;50.104;8.074;2022-12-18T12:02:19;48.60;;;17.60;;
74707;SDS011;63360;50.104;8.074;2022-12-18T12:07:44;42.40;;;15.57;;
74707;SDS011;63360;50.104;8.074;2022-12-18T12:10:28;49.85;;;17.92;;
74707;SDS011;63360;50.104;8.074;2022-12-18T12:21:55;39.10;;;15.02;;
74707;SDS011;63360;50.104;8.074;2022-12-18T12:35:37;51.30;;;17.00;;
74707;SDS011;63360;50.104;8.074;2022-12-18T12:38:14;49.97;;;16.98;;
74707;SDS011;63360;50.104;8.074;2022-12-18T12:40:51;50.47;;;16.50;;
74707;SDS011;63360;50.104;8.074;2022-12-18T12:43:35;51.55;;;19.50;;
74707;SDS011;63360;50.104;8.074;2022-12-18T12:46:16;51.07;;;18.20;;
74707;SDS011;63360;50.104;8.074;2022-12-18T12:48:48;47.15;;;16.17;;
74707;SDS011;63360;50.104;8.074;2022-12-18T12:51:19;58.05;;;20.13;;
74707;SDS011;63360;50.104;8.074;2022-12-18T12:53:49;54.13;;;18.65;;
74707;SDS011;63360;50.104;8.074;2022-12-18T12:56:17;53.65;;;19.65;;
74707;SDS011;63360;50.104;8.074;2022-12-18T12:58:51;63.47;;;23.07;;
74707;SDS011;63360;50.104;8.074;2022-12-18T13:01:32;53.53;;;18.90;;
74707;SDS011;63360;50.104;8.074;2022-12-18T13:04:27;56.63;;;21.50;;
74707;SDS011;63360;50.104;8.074;2022-12-18T13:07:12;53.53;;;18.95;;
74707;SDS011;63360;50.104;8.074;2022-12-18T13:21:15;44.92;;;16.35;;
74707;SDS011;63360;50.104;8.074;2022-12-18T13:23:41;54.80;;;18.42;;
74707;SDS011;63360;50.104;8.074;2022-12-18T13:28:53;50.05;;;18.23;;
74707;SDS011;63360;50.104;8.074;2022-12-18T13:34:21;47.08;;;15.48;;
74707;SDS011;63360;50.104;8.074;2022-12-18T13:36:54;48.67;;;15.35;;
74707;SDS011;63360;50.104;8.074;2022-12-18T13:39:23;49.93;;;16.67;;
74707;SDS011;63360;50.104;8.074;2022-12-18T13:44:42;51.88;;;17.60;;
74707;SDS011;63360;50.104;8.074;2022-12-18T13:47:25;56.50;;;18.85;;
74707;SDS011;63360;50.104;8.074;2022-12-18T13:49:52;48.05;;;16.98;;
74707;SDS011;63360;50.104;8.074;2022-12-18T13:52:20;48.53;;;15.30;;
74707;SDS011;63360;50.104;8.074;2022-12-18T13:54:50;49.35;;;16.02;;
74707;SDS011;63360;50.104;8.074;2022-12-18T13:57:33;45.60;;;15.27;;
74707;SDS011;63360;50.104;8.074;2022-12-18T14:00:24;52.03;;;17.10;;
74707;SDS011;63360;50.104;8.074;2022-12-18T14:02:55;52.08;;;15.38;;
74707;SDS011;63360;50.104;8.074;2022-12-18T14:07:58;55.47;;;17.08;;
74707;SDS011;63360;50.104;8.074;2022-12-18T14:10:32;51.22;;;16.27;;
74707;SDS011;63360;50.104;8.074;2022-12-18T14:13:24;53.83;;;18.38;;
74707;SDS011;63360;50.104;8.074;2022-12-18T14:15:55;42.65;;;14.88;;
74707;SDS011;63360;50.104;8.074;2022-12-18T14:21:00;41.28;;;12.40;;
74707;SDS011;63360;50.104;8.074;2022-12-18T14:23:29;45.58;;;13.95;;
74707;SDS011;63360;50.104;8.074;2022-12-18T14:25:58;39.45;;;12.65;;
74707;SDS011;63360;50.104;8.074;2022-12-18T14:28:31;44.90;;;14.07;;
74707;SDS011;63360;50.104;8.074;2022-12-18T14:30:58;47.60;;;14.33;;
74707;SDS011;63360;50.104;8.074;2022-12-18T14:33:25;43.00;;;14.38;;
74707;SDS011;63360;50.104;8.074;2022-12-18T14:38:32;48.70;;;15.57;;
74707;SDS011;63360;50.104;8.074;2022-12-18T14:41:06;51.15;;;14.73;;
74707;SDS011;63360;50.104;8.074;2022-12-18T14:43:38;39.03;;;10.93;;
74707;SDS011;63360;50.104;8.074;2022-12-18T14:48:54;45.97;;;13.32;;
74707;SDS011;63360;50.104;8.074;2022-12-18T14:51:22;52.05;;;14.65;;
74707;SDS011;63360;50.104;8.074;2022-12-18T14:56:25;50.63;;;15.40;;
74707;SDS011;63360;50.104;8.074;2022-12-18T14:59:00;46.50;;;13.52;;
74707;SDS011;63360;50.104;8.074;2022-12-18T15:01:39;44.65;;;13.82;;
74707;SDS011;63360;50.104;8.074;2022-12-18T15:04:26;54.05;;;15.02;;
74707;SDS011;63360;50.104;8.074;2022-12-18T15:09:37;50.10;;;15.77;;
74707;SDS011;63360;50.104;8.074;2022-12-18T15:12:04;54.63;;;17.20;;
74707;SDS011;63360;50.104;8.074;2022-12-18T15:17:06;49.60;;;15.13;;
74707;SDS011;63360;50.104;8.074;2022-12-18T15:19:42;42.67;;;12.18;;
74707;SDS011;63360;50.104;8.074;2022-12-18T15:22:29;44.00;;;13.47;;
74707;SDS011;63360;50.104;8.074;2022-12-18T15:24:59;49.17;;;14.27;;
74707;SDS011;63360;50.104;8.074;2022-12-18T15:27:33;54.15;;;14.43;;
74707;SDS011;63360;50.104;8.074;2022-12-18T15:32:31;49.83;;;14.35;;
74707;SDS011;63360;50.104;8.074;2022-12-18T15:35:41;38.83;;;11.27;;
74707;SDS011;63360;50.104;8.074;2022-12-18T15:37:50;46.38;;;12.90;;
74707;SDS011;63360;50.104;8.074;2022-12-18T15:40:19;45.65;;;13.45;;
74707;SDS011;63360;50.104;8.074;2022-12-18T15:42:51;46.67;;;14.27;;
74707;SDS011;63360;50.104;8.074;2022-12-18T15:45:52;48.00;;;12.68;;
74707;SDS011;63360;50.104;8.074;2022-12-18T15:48:22;39.05;;;11.35;;
74707;SDS011;63360;50.104;8.074;2022-12-18T15:50:52;42.15;;;12.82;;
74707;SDS011;63360;50.104;8.074;2022-12-18T15:53:23;41.20;;;11.75;;
74707;SDS011;63360;50.104;8.074;2022-12-18T15:55:50;49.47;;;14.50;;
74707;SDS011;63360;50.104;8.074;2022-12-18T15:58:35;44.40;;;12.88;;
74707;SDS011;63360;50.104;8.074;2022-12-18T16:01:02;45.43;;;12.50;;
74707;SDS011;63360;50.104;8.074;2022-12-18T16:03:29;63.80;;;21.05;;
74707;SDS011;63360;50.104;8.074;2022-12-18T16:05:55;55.92;;;17.42;;
74707;SDS011;63360;50.104;8.074;2022-12-18T16:08:23;45.55;;;14.55;;
74707;SDS011;63360;50.104;8.074;2022-12-18T16:10:49;44.45;;;12.98;;
74707;SDS011;63360;50.104;8.074;2022-12-18T16:13:16;44.63;;;12.60;;
74707;SDS011;63360;50.104;8.074;2022-12-18T16:15:45;52.55;;;14.32;;
74707;SDS011;63360;50.104;8.074;2022-12-18T16:18:12;42.22;;;12.23;;
74707;SDS011;63360;50.104;8.074;2022-12-18T16:20:38;45.45;;;12.95;;
74707;SDS011;63360;50.104;8.074;2022-12-18T16:23:05;48.25;;;12.93;;
74707;SDS011;63360;50.104;8.074;2022-12-18T16:25:31;43.17;;;12.50;;
74707;SDS011;63360;50.104;8.074;2022-12-18T16:27:58;44.55;;;12.23;;
74707;SDS011;63360;50.104;8.074;2022-12-18T16:30:26;45.35;;;13.43;;
74707;SDS011;63360;50.104;8.074;2022-12-18T16:33:03;46.00;;;14.13;;
74707;SDS011;63360;50.104;8.074;2022-12-18T16:35:32;42.72;;;12.40;;
74707;SDS011;63360;50.104;8.074;2022-12-18T16:37:59;50.80;;;14.50;;
74707;SDS011;63360;50.104;8.074;2022-12-18T16:40:25;40.28;;;11.52;;
74707;SDS011;63360;50.104;8.074;2022-12-18T16:42:52;42.08;;;11.63;;
74707;SDS011;63360;50.104;8.074;2022-12-18T16:45:18;43.33;;;14.38;;
74707;SDS011;63360;50.104;8.074;2022-12-18T16:47:44;44.15;;;12.25;;
74707;SDS011;63360;50.104;8.074;2022-12-18T16:50:11;46.47;;;14.80;;
74707;SDS011;63360;50.104;8.074;2022-12-18T16:52:38;40.92;;;12.35;;